Terminal Aerodrome Forecast
Issued by NWS Chicago, IL

Home | Current Version | Previous Version | Text Only | Print | Product List | Glossary Off
Versions: 1 2 3 4 5 6 7 8 9 10 11 12 13 14 15 16 17 18 19 20 21 22 23 24 25 26 27 28 29 30

000
FTUS43 KLOT 161502 AAA
TAFRFD
TAF AMD
KRFD 161502Z 1615/1712 32012KT P6SM OVC019
     FM161900 VRB03KT P6SM BKN025 BKN250
     FM170400 15007KT P6SM BKN150=

USA.gov is the U.S. government's official web portal to all federal, state and local government web resources and services.